createdAt,value
2019-03-16T00:00:14.549Z,8.20
2019-03-16T00:05:11.524Z,7.70
2019-03-16T00:10:08.615Z,8.73
2019-03-16T00:15:06.931Z,7.47
2019-03-16T00:20:10.371Z,7.77
2019-03-16T00:25:09.279Z,7.10
2019-03-16T00:30:12.105Z,7.07
2019-03-16T00:35:09.191Z,6.43
2019-03-16T00:40:09.197Z,6.00
2019-03-16T00:45:09.604Z,7.07
2019-03-16T00:50:12.370Z,7.07
2019-03-16T00:55:10.020Z,6.83
2019-03-16T01:00:12.750Z,5.97
2019-03-16T01:05:12.703Z,7.10
2019-03-16T01:10:10.356Z,6.17
2019-03-16T01:15:11.942Z,6.80
2019-03-16T01:20:11.629Z,6.03
2019-03-16T01:25:10.235Z,5.80
2019-03-16T01:30:15.644Z,7.10
2019-03-16T01:35:12.749Z,5.23
2019-03-16T01:40:10.733Z,5.37
2019-03-16T01:45:13.130Z,6.07
2019-03-16T01:50:11.719Z,5.40
2019-03-16T01:55:08.994Z,5.47
2019-03-16T02:00:12.661Z,4.47
2019-03-16T02:05:09.879Z,4.87
2019-03-16T02:10:08.653Z,4.67
2019-03-16T02:15:07.342Z,5.00
2019-03-16T02:20:07.224Z,4.23
2019-03-16T02:25:06.072Z,4.40
2019-03-16T02:30:09.422Z,4.00
2019-03-16T02:35:08.323Z,3.90
2019-03-16T02:40:09.265Z,3.87
2019-03-16T02:45:12.384Z,3.57
2019-03-16T02:50:10.863Z,3.27
2019-03-16T02:55:08.340Z,3.83
2019-03-16T03:00:14.732Z,2.80
2019-03-16T03:05:11.862Z,3.10
2019-03-16T03:10:14.891Z,3.57
2019-03-16T03:15:12.016Z,3.40
2019-03-16T03:20:09.693Z,3.30
2019-03-16T03:25:06.909Z,3.23
2019-03-16T03:30:12.403Z,2.93
2019-03-16T03:35:12.589Z,2.80
2019-03-16T03:40:11.317Z,2.60
2019-03-16T03:45:10.816Z,3.10
2019-03-16T03:50:11.337Z,3.20
2019-03-16T03:55:12.843Z,3.00
2019-03-16T04:00:16.110Z,3.27
2019-03-16T04:05:13.526Z,4.13
2019-03-16T04:10:11.077Z,3.27
2019-03-16T04:15:12.347Z,3.40
2019-03-16T04:20:13.811Z,3.57
2019-03-16T04:25:10.946Z,3.80
2019-03-16T04:30:12.895Z,3.63
2019-03-16T04:35:10.071Z,3.60
2019-03-16T04:40:09.685Z,3.10
2019-03-16T04:45:10.438Z,3.70
2019-03-16T04:50:11.818Z,4.27
2019-03-16T04:55:08.877Z,3.80
2019-03-16T05:00:11.683Z,3.83
2019-03-16T05:05:09.002Z,3.70
2019-03-16T05:10:09.776Z,3.40
2019-03-16T05:15:11.131Z,3.20
2019-03-16T05:20:10.460Z,3.37
2019-03-16T05:25:11.188Z,4.27
2019-03-16T05:30:13.062Z,4.00
2019-03-16T05:35:10.192Z,3.60
2019-03-16T05:40:09.467Z,3.13
2019-03-16T05:45:11.163Z,2.77
2019-03-16T05:50:10.892Z,3.30
2019-03-16T05:55:10.105Z,3.57
2019-03-16T06:00:13.255Z,3.77
2019-03-16T06:05:12.263Z,3.57
2019-03-16T06:10:11.086Z,5.10
2019-03-16T06:15:10.638Z,3.53
2019-03-16T06:20:17.194Z,4.10
2019-03-16T06:25:14.248Z,3.47
2019-03-16T06:30:16.149Z,3.43
2019-03-16T06:35:24.109Z,3.40
2019-03-16T06:40:14.094Z,3.13
2019-03-16T06:45:12.368Z,3.30
2019-03-16T06:50:15.487Z,3.50
2019-03-16T06:55:19.417Z,3.83
2019-03-16T07:00:17.406Z,4.23
2019-03-16T07:05:15.608Z,3.63
2019-03-16T07:10:13.305Z,4.17
2019-03-16T07:15:17.649Z,4.40
2019-03-16T07:20:17.149Z,3.43
2019-03-16T07:25:14.239Z,4.17
2019-03-16T07:30:13.144Z,4.07
2019-03-16T07:35:12.849Z,4.40
2019-03-16T07:40:13.709Z,4.70
2019-03-16T07:45:23.781Z,4.63
2019-03-16T07:50:22.855Z,5.50
2019-03-16T07:55:21.055Z,5.03
2019-03-16T08:00:18.248Z,4.37
2019-03-16T08:05:19.590Z,4.27
2019-03-16T08:10:18.662Z,5.23
2019-03-16T08:15:15.967Z,4.17
2019-03-16T08:20:14.467Z,3.50
2019-03-16T08:25:16.409Z,5.17
2019-03-16T08:30:13.576Z,4.63
2019-03-16T08:35:12.284Z,4.30
2019-03-16T08:40:10.434Z,4.00
2019-03-16T08:45:09.004Z,4.23
2019-03-16T08:50:08.565Z,4.57
2019-03-16T08:55:09.259Z,4.83
2019-03-16T09:00:12.887Z,4.97
2019-03-16T09:05:11.992Z,4.07
2019-03-16T09:10:11.758Z,4.20
2019-03-16T09:15:13.573Z,4.63
2019-03-16T09:20:22.750Z,4.37
2019-03-16T09:25:26.275Z,4.33
2019-03-16T09:30:25.344Z,5.47
2019-03-16T09:35:24.353Z,4.40
2019-03-16T09:40:21.438Z,4.30
2019-03-16T09:45:18.621Z,3.77
2019-03-16T09:50:17.727Z,3.90
2019-03-16T09:55:17.008Z,4.40
2019-03-16T10:00:15.608Z,4.03
2019-03-16T10:05:17.150Z,3.90
2019-03-16T10:10:25.302Z,5.30
2019-03-16T10:15:24.012Z,4.67
2019-03-16T10:20:21.166Z,3.90
2019-03-16T10:25:21.919Z,3.37
2019-03-16T10:30:25.957Z,3.73
2019-03-16T10:35:25.844Z,3.07
2019-03-16T10:40:24.878Z,3.20
2019-03-16T10:45:23.308Z,2.77
2019-03-16T10:50:20.659Z,3.67
2019-03-16T10:55:20.590Z,2.90
2019-03-16T11:00:22.166Z,3.40
2019-03-16T11:05:19.411Z,4.60
2019-03-16T11:10:18.440Z,3.30
2019-03-16T11:15:17.304Z,3.47
2019-03-16T11:20:16.361Z,3.70
2019-03-16T11:25:13.601Z,4.57
2019-03-16T11:30:18.487Z,3.90
2019-03-16T11:35:20.194Z,3.50
2019-03-16T11:40:18.065Z,5.97
2019-03-16T11:45:17.052Z,4.57
2019-03-16T11:50:19.982Z,2.80
2019-03-16T11:55:17.608Z,3.63
2019-03-16T12:00:15.060Z,4.03
2019-03-16T12:05:14.178Z,3.90
2019-03-16T12:10:14.711Z,3.60
2019-03-16T12:15:13.281Z,4.00
2019-03-16T12:20:18.059Z,3.80
2019-03-16T12:25:14.464Z,5.73
2019-03-16T12:30:13.702Z,3.20
2019-03-16T12:35:12.830Z,4.17
2019-03-16T12:40:14.056Z,7.33
2019-03-16T12:45:15.090Z,3.30
2019-03-16T12:50:15.084Z,3.57
2019-03-16T12:55:12.432Z,3.80
2019-03-16T13:00:16.037Z,3.67
2019-03-16T13:05:15.194Z,3.93
2019-03-16T13:10:21.615Z,4.07
2019-03-16T13:15:21.505Z,4.03
2019-03-16T13:20:18.644Z,4.23
2019-03-16T13:25:19.459Z,4.00
2019-03-16T13:30:27.079Z,3.80
2019-03-16T13:35:25.557Z,3.53
2019-03-16T13:40:22.721Z,5.20
2019-03-16T13:45:20.672Z,4.90
2019-03-16T13:50:19.471Z,3.53
2019-03-16T13:55:18.995Z,5.37
2019-03-16T14:00:19.880Z,3.80
2019-03-16T14:05:18.989Z,4.23
2019-03-16T14:10:24.866Z,3.70
2019-03-16T14:15:21.955Z,3.80
2019-03-16T14:20:22.751Z,5.07
2019-03-16T14:25:20.801Z,3.77
2019-03-16T14:30:39.283Z,4.00
2019-03-16T14:35:21.397Z,3.47
2019-03-16T14:40:19.526Z,4.30
2019-03-16T14:45:17.895Z,4.93
2019-03-16T14:50:21.341Z,4.73
2019-03-16T14:55:18.464Z,3.90
2019-03-16T15:00:20.525Z,4.37
2019-03-16T15:05:17.700Z,4.27
2019-03-16T15:10:19.749Z,3.33
2019-03-16T15:15:18.891Z,5.07
2019-03-16T15:20:16.277Z,4.20
2019-03-16T15:25:15.376Z,5.33
2019-03-16T15:30:21.518Z,5.00
2019-03-16T15:35:18.630Z,5.00
2019-03-16T15:40:17.663Z,4.53
2019-03-16T15:45:21.271Z,5.27
2019-03-16T15:50:18.987Z,5.07
2019-03-16T15:55:23.219Z,4.13
2019-03-16T16:00:24.876Z,4.80
2019-03-16T16:05:24.573Z,6.40
2019-03-16T16:10:23.321Z,5.30
2019-03-16T16:15:20.558Z,5.97
2019-03-16T16:20:18.523Z,5.83
2019-03-16T16:25:21.313Z,5.80
2019-03-16T16:30:20.670Z,5.37
2019-03-16T16:35:17.919Z,5.33
2019-03-16T16:45:46.889Z,6.60
2019-03-16T16:50:49.223Z,6.97
2019-03-16T16:55:46.367Z,7.20
2019-03-16T17:00:46.548Z,6.83
2019-03-16T17:05:52.926Z,5.87
2019-03-16T17:10:51.932Z,7.87
2019-03-16T17:16:08.759Z,6.67
2019-03-16T17:21:05.892Z,7.40
2019-03-16T17:26:02.940Z,7.37
2019-03-16T17:31:05.008Z,6.83
2019-03-16T17:36:02.059Z,7.03
2019-03-16T17:41:01.238Z,8.70
2019-03-16T17:46:00.552Z,7.23
2019-03-16T17:50:58.144Z,10.73
2019-03-16T17:55:56.949Z,7.50
2019-03-16T18:00:54.063Z,8.20
2019-03-16T18:05:51.231Z,7.67
2019-03-16T18:10:48.348Z,7.70
2019-03-16T18:15:45.437Z,9.50
2019-03-16T18:20:51.438Z,9.30
2019-03-16T18:25:48.438Z,9.90
2019-03-16T18:30:47.041Z,8.47
2019-03-16T18:35:44.053Z,9.73
2019-03-16T18:40:41.156Z,9.73
2019-03-16T18:45:38.221Z,11.53
2019-03-16T18:50:35.406Z,10.53
2019-03-16T18:55:33.221Z,13.17
2019-03-16T19:00:30.308Z,12.73
2019-03-16T19:05:30.763Z,12.10
2019-03-16T19:10:27.993Z,11.83
2019-03-16T19:15:25.005Z,11.97
2019-03-16T19:20:22.427Z,13.17
2019-03-16T19:25:22.368Z,11.57
2019-03-16T19:30:19.754Z,12.47
2019-03-16T19:35:18.377Z,12.10
2019-03-16T19:40:20.505Z,13.07
2019-03-16T19:45:17.708Z,11.50
2019-03-16T19:50:16.090Z,12.50
2019-03-16T19:55:13.854Z,12.47
2019-03-16T20:00:16.370Z,11.97
2019-03-16T20:05:15.441Z,11.93
2019-03-16T20:10:18.459Z,12.77
2019-03-16T20:15:16.025Z,12.57
2019-03-16T20:20:16.698Z,15.30
2019-03-16T20:25:14.116Z,11.47
2019-03-16T20:30:25.838Z,19.30
2019-03-16T20:35:17.247Z,26.93
2019-03-16T20:40:17.019Z,25.03
2019-03-16T20:45:14.364Z,24.20
2019-03-16T20:50:15.103Z,21.20
2019-03-16T20:55:12.595Z,23.03
2019-03-16T21:00:17.848Z,25.07
2019-03-16T21:05:14.980Z,24.30
2019-03-16T21:10:13.857Z,22.90
2019-03-16T21:15:15.452Z,22.37
2019-03-16T21:20:17.234Z,23.53
2019-03-16T21:25:16.064Z,20.20
2019-03-16T21:30:16.166Z,17.77
2019-03-16T21:35:13.259Z,18.57
2019-03-16T21:40:15.023Z,18.93
2019-03-16T21:45:13.385Z,19.37
2019-03-16T21:50:13.719Z,20.93
2019-03-16T21:55:12.267Z,19.30
2019-03-16T22:00:17.312Z,18.23
2019-03-16T22:05:14.385Z,17.27
2019-03-16T22:10:16.543Z,15.70
2019-03-16T22:15:15.021Z,17.40
2019-03-16T22:20:17.884Z,19.03
2019-03-16T22:25:14.972Z,20.10
2019-03-16T22:30:16.141Z,16.60
2019-03-16T22:35:13.236Z,16.60
2019-03-16T22:40:11.857Z,15.17
2019-03-16T22:45:13.120Z,13.30
2019-03-16T22:50:14.507Z,11.40
2019-03-16T22:55:11.581Z,10.70
2019-03-16T23:00:23.143Z,10.10
2019-03-16T23:05:20.299Z,9.47
2019-03-16T23:10:20.258Z,7.40
2019-03-16T23:15:17.477Z,8.43
2019-03-16T23:20:14.573Z,7.63
2019-03-16T23:25:11.562Z,8.07
2019-03-16T23:30:12.244Z,6.93
2019-03-16T23:35:11.045Z,6.00
2019-03-16T23:40:12.779Z,6.80
2019-03-16T23:45:12.250Z,6.63
2019-03-16T23:50:11.894Z,8.00
2019-03-16T23:55:09.302Z,7.27
